EGPFEKVG

Guest
Details From EGPF - Glasgow
To EKVG - Vagar
Flight Number -
Tags generated
Created
Modified
Stats Distance 387 nm / 717 km
Max Altitude 34,000 ft / 10,363 m
Waypoints 5
Social Downloads 2
Likes 0
Share VATSIM

Download

Looking for another format? Having issues loading an existing format? Contact us
Advertisement - Login to hide

Notes

Basic altitude profile: - Ascent Rate: 2500ft/min - Ascent Speed: 250kts - Cruise Altitude: 35000ft - Cruise Speed: 420kts - Descent Rate: 1500ft/min - Descent Speed: 250kts

Route

EGPF ORSUM UN615 STN UN614 OLKER EKVG

ID Type Via Altitude Latitude Longitude Leg Dist Tot Dist Heading (true) Name
O EGPF APT - 0 ft / 0 m 55.87173˚ -4.43365˚ - 0 nm - Glasgow
ORSUM FIX - 26,200 ft / 7,986 m 57.05194˚ -5.29472˚ 76 nm 76 nm 338° / 338° -
STN VOR UN615 (AWY-HI) 34,000 ft / 10,363 m 58.20694˚ -6.18306˚ 75 nm 151 nm 338° / 337° STORNOWAY VOR-DME
OLKER FIX UN614 (AWY-HI) 24,500 ft / 7,468 m 61.00000˚ -6.50000˚ 168 nm 319 nm 357° / 357° -
O EKVG APT - 0 ft / 0 m 62.06358˚ -7.27704˚ 67 nm 387 nm 341° / 340° Vagar

Altitude Profile

Advertisement - Login to hide

Weather


0- 5 10 15 20 25 30 35+ Temperature / ° C

Clouds and Precipitation
Forecast for 2018-05-22 18:00 UTC. Updated an hour ago

Ground ~20,000 ft ~40,000 ft Winds

EGPF

Details ICAO EGPF (GLA)
Name Glasgow
Region United Kingdom
Timezone Europe/London (UTC+1.0)
Stats Elevation 26 ft / 8 m (AMSL)
Location 55.871728° -4.433648°
Runways 1
Magnetic Variation 2.657° W

METAR

EGPF 221820Z AUTO 06013KT 9999 FEW027 14/08 Q1024

Decode

TAF

TAF EGPF 221658Z 2218/2318 08009KT 9999 SCT020 PROB40 TEMPO 2223/2307 8000 BKN014

Decode

Departure Runways

ID Width Length Bearing (true) Bearing (mag) Surface Threshold Offset Overrun Length
05 151 ft / 46 m 8,721 ft / 2,658 m 46.34° 49.00° Asphalt 0 ft / 0 m 499 ft / 152 m
23 151 ft / 46 m 8,721 ft / 2,658 m 226.37° 229.03° Asphalt 1,004 ft / 306 m 0 ft / 0 m

EKVG

Details ICAO EKVG (FAE)
Name Vagar
Region Denmark / Faroe Islands
Timezone Atlantic/Faroe (UTC+1.0)
Stats Elevation 280 ft / 85 m (AMSL)
Location 62.063584° -7.277044°
Runways 1
Magnetic Variation 5.291° W

METAR

EKVG 221820Z AUTO 17010KT 9999NDV NCD 08/05 Q1027 RMK FEW015/// SCT130/// WIND 850FT 16016KT

Decode

TAF

Not found

Destination Runways

ID Width Length Bearing (true) Bearing (mag) Surface Threshold Offset Overrun Length
13 98 ft / 30 m 4,088 ft / 1,246 m 117.92° 123.21° Asphalt 0 ft / 0 m 197 ft / 60 m
31 98 ft / 30 m 4,088 ft / 1,246 m 297.94° 303.23° Asphalt 0 ft / 0 m 197 ft / 60 m

Approach Navaids

Runway Type Ident Frequency Range Bearing (true) Bearing (mag) Slope Elevation
13 Localiser SF 109.10 MHz 17 nm / 31 km 104.19° 109.48° - 268 ft / 82 m (AMSL)
13 DME SF 109.10 MHz 18 nm / 33 km - - - 268 ft / 82 m (AMSL)
31 Localiser MF 110.30 MHz 26 nm / 48 km 296.18° 301.47° - 276 ft / 84 m (AMSL)
31 DME MF 110.30 MHz 25 nm / 46 km - - - 275 ft / 84 m (AMSL)

Popular Alternatives